Time;durP1;ratioP1;P1;durP2;ratioP2;P2;SDS_P1;SDS_P2;PMS_P1;PMS_P2;Temp;Humidity;BMP_temperature;BMP_pressure;BME280_temperature;BME280_humidity;BME280_pressure;Samples;Min_cycle;Max_cycle;Signal;HPM_P1;HPM_P2
2022/04/13 00:01:37;;;;;;;16.90;7.35;;;;;;;7.06;65.33;98887.47;4932402;29;20114;-70
2022/04/13 00:04:03;;;;;;;15.43;7.07;;;;;;;7.07;65.26;98889.91;4930018;29;20070;-72
2022/04/13 00:06:29;;;;;;;14.95;6.95;;;;;;;7.06;65.00;98887.47;4932153;29;20501;-71
2022/04/13 00:08:56;;;;;;;15.30;6.82;;;;;;;7.07;65.02;98892.63;4929889;29;20508;-72
2022/04/13 00:11:22;;;;;;;15.82;6.82;;;;;;;7.09;65.00;98895.88;4907150;29;20130;-71
2022/04/13 00:13:49;;;;;;;14.37;7.93;;;;;;;7.06;64.93;98893.72;4939978;29;20048;-70
2022/04/13 00:16:15;;;;;;;15.55;6.55;;;;;;;7.09;65.12;98901.31;4926452;29;20110;-72
2022/04/13 00:18:42;;;;;;;14.27;7.50;;;;;;;7.04;65.03;98895.09;4928905;29;20055;-72
2022/04/13 00:21:08;;;;;;;13.38;6.78;;;;;;;7.01;65.12;98901.06;4940673;28;20052;-72
2022/04/13 00:23:34;;;;;;;14.88;7.40;;;;;;;6.98;65.28;98896.19;4940212;29;20062;-72
2022/04/13 00:26:00;;;;;;;14.07;7.43;;;;;;;6.97;65.13;98889.94;4936996;29;20464;-71
2022/04/13 00:28:26;;;;;;;14.85;6.72;;;;;;;6.99;65.08;98890.47;4939366;29;20060;-71
2022/04/13 00:30:53;;;;;;;14.65;6.32;;;;;;;6.94;65.28;98891.28;4934364;29;20513;-72
2022/04/13 00:33:19;;;;;;;12.23;6.47;;;;;;;6.94;65.16;98902.16;4943180;29;20393;-72
2022/04/13 00:35:45;;;;;;;13.88;6.38;;;;;;;6.97;65.09;98895.38;4930466;29;20532;-73
2022/04/13 00:38:11;;;;;;;17.60;6.80;;;;;;;7.04;64.82;98889.66;4944568;29;20051;-72
2022/04/13 00:40:42;;;;;;;17.95;6.70;;;;;;;6.96;64.97;98904.63;4939959;29;20082;-72
2022/04/13 00:43:08;;;;;;;12.13;6.40;;;;;;;6.92;65.03;98892.63;4943141;29;20146;-72
2022/04/13 00:45:34;;;;;;;12.70;6.93;;;;;;;6.98;64.83;98898.91;4936587;28;20138;-72
2022/04/13 00:48:02;;;;;;;14.02;7.00;;;;;;;6.99;64.86;98898.63;4943432;29;20059;-70
2022/04/13 00:50:28;;;;;;;17.10;6.43;;;;;;;7.00;64.85;98894.00;4941800;29;20047;-73
2022/04/13 00:52:58;;;;;;;13.77;6.55;;;;;;;6.95;64.91;98892.13;4942621;29;20059;-72
2022/04/13 00:55:26;;;;;;;14.63;6.43;;;;;;;6.96;64.77;98882.88;4941735;29;20098;-73
2022/04/13 00:57:54;;;;;;;14.02;6.13;;;;;;;6.87;64.70;98879.91;4943381;29;20054;-73
2022/04/13 01:00:20;;;;;;;11.68;5.68;;;;;;;6.94;64.83;98885.03;4942448;29;20063;-71
2022/04/13 01:02:46;;;;;;;13.85;6.28;;;;;;;6.88;64.77;98889.69;4934293;29;20118;-73
2022/04/13 01:05:14;;;;;;;19.95;6.80;;;;;;;6.86;64.79;98880.94;4943289;29;20139;-73
2022/04/13 01:07:41;;;;;;;13.82;5.85;;;;;;;6.91;64.67;98891.84;4924560;29;20400;-73
2022/04/13 01:10:09;;;;;;;12.75;6.03;;;;;;;6.86;64.84;98897.25;4926272;29;20059;-72
2022/04/13 01:12:37;;;;;;;12.60;6.68;;;;;;;6.85;64.62;98892.91;4938511;29;20054;-73
2022/04/13 01:15:04;;;;;;;14.13;5.95;;;;;;;6.86;64.73;98889.09;4942771;29;20114;-73
2022/04/13 01:17:30;;;;;;;15.57;5.72;;;;;;;6.82;64.81;98885.31;4942764;29;20060;-73
2022/04/13 01:19:57;;;;;;;13.48;6.18;;;;;;;6.81;64.81;98891.84;4930174;29;20055;-73
2022/04/13 01:22:25;;;;;;;16.70;6.30;;;;;;;6.75;64.98;98884.78;4941220;29;20103;-70
2022/04/13 01:24:52;;;;;;;14.13;5.78;;;;;;;6.84;64.83;98893.19;4943603;29;20427;-72
2022/04/13 01:27:18;;;;;;;14.30;6.10;;;;;;;6.70;64.78;98885.59;4942381;29;20059;-72
2022/04/13 01:29:48;;;;;;;11.80;5.43;;;;;;;6.72;65.10;98894.28;4942680;29;20059;-70
2022/04/13 01:32:14;;;;;;;13.43;5.95;;;;;;;6.81;64.61;98889.94;4938737;29;20484;-72
2022/04/13 01:34:46;;;;;;;12.27;6.10;;;;;;;6.80;64.63;98888.31;4936247;29;20047;-72
2022/04/13 01:37:12;;;;;;;12.68;5.93;;;;;;;6.87;64.67;98890.75;4941601;29;20493;-72
2022/04/13 01:39:39;;;;;;;12.45;5.25;;;;;;;6.86;64.57;98896.47;4940466;29;20053;-72
2022/04/13 01:42:06;;;;;;;13.98;6.30;;;;;;;6.77;64.66;98890.75;4943548;28;20070;-72
2022/04/13 01:44:33;;;;;;;13.45;5.32;;;;;;;6.71;64.77;98887.22;4939481;29;20062;-71
2022/04/13 01:46:59;;;;;;;12.95;6.07;;;;;;;6.73;64.69;98886.97;4940802;29;20154;-71
2022/04/13 01:49:25;;;;;;;11.45;5.30;;;;;;;6.74;64.62;98891.31;4936218;29;20167;-71
2022/04/13 01:51:51;;;;;;;10.45;5.20;;;;;;;6.74;64.64;98883.16;4944679;29;20047;-71
2022/04/13 01:54:17;;;;;;;13.30;5.72;;;;;;;6.77;64.58;98899.72;4938170;29;20676;-72
2022/04/13 01:56:44;;;;;;;11.35;5.68;;;;;;;6.78;64.49;98898.63;4942051;28;20083;-72
2022/04/13 01:59:11;;;;;;;12.27;5.50;;;;;;;6.87;64.38;98889.94;4938874;29;20056;-71
2022/04/13 02:01:43;;;;;;;10.88;5.15;;;;;;;6.86;64.18;98891.81;4919232;29;20312;-71
2022/04/13 02:04:16;;;;;;;13.63;5.60;;;;;;;6.81;64.26;98895.38;4937350;29;20067;-72
2022/04/13 02:06:42;;;;;;;11.80;5.70;;;;;;;6.73;64.47;98898.63;4935105;29;20059;-72
2022/04/13 02:09:08;;;;;;;12.25;5.53;;;;;;;6.73;64.66;98897.81;4924859;29;20058;-72
2022/04/13 02:11:34;;;;;;;11.68;4.93;;;;;;;6.64;64.75;98898.34;4939146;29;20508;-69
2022/04/13 02:14:01;;;;;;;11.80;5.70;;;;;;;6.71;64.49;98908.13;4935529;29;20457;-73
2022/04/13 02:16:27;;;;;;;12.65;5.65;;;;;;;6.72;64.49;98902.44;4922395;29;20114;-73
2022/04/13 02:18:54;;;;;;;16.20;5.30;;;;;;;6.53;64.52;98896.72;4935572;29;20060;-73
2022/04/13 02:21:19;;;;;;;11.43;5.60;;;;;;;6.67;64.63;98921.47;4923908;29;20087;-73
2022/04/13 02:23:46;;;;;;;10.35;5.40;;;;;;;6.67;64.51;98926.88;4942769;29;20440;-73
2022/04/13 02:26:13;;;;;;;11.93;5.75;;;;;;;6.69;64.69;98924.72;4936043;29;20119;-73
2022/04/13 02:28:40;;;;;;;12.48;5.22;;;;;;;6.63;64.77;98934.75;4943818;29;20059;-72
2022/04/13 02:31:07;;;;;;;10.75;5.35;;;;;;;6.61;64.69;98934.22;4940144;28;20055;-71
2022/04/13 02:33:33;;;;;;;10.77;5.15;;;;;;;6.62;64.67;98930.41;4941105;29;20044;-71
2022/04/13 02:35:59;;;;;;;10.63;4.82;;;;;;;6.65;64.37;98932.59;4942302;28;20059;-70
2022/04/13 02:38:25;;;;;;;10.70;5.20;;;;;;;6.69;64.56;98940.19;4923485;29;20048;-70
2022/04/13 02:40:52;;;;;;;10.90;4.50;;;;;;;6.68;64.27;98928.50;4932024;29;20095;-70
2022/04/13 02:43:18;;;;;;;12.07;4.93;;;;;;;6.70;64.45;98941.81;4943135;29;20051;-71
2022/04/13 02:45:45;;;;;;;14.90;5.25;;;;;;;6.51;64.38;98921.44;4943672;28;20539;-70
2022/04/13 02:48:12;;;;;;;10.80;4.85;;;;;;;6.61;64.72;98950.50;4934491;29;20190;-70
2022/04/13 02:50:38;;;;;;;18.83;5.57;;;;;;;6.63;64.61;98950.22;4920383;29;20516;-71
2022/04/13 02:53:05;;;;;;;21.65;5.75;;;;;;;6.67;64.43;98949.41;4936985;29;20120;-71
2022/04/13 02:55:31;;;;;;;12.40;5.38;;;;;;;6.72;64.48;98943.19;4938487;29;20063;-70
2022/04/13 02:57:57;;;;;;;13.68;5.35;;;;;;;6.74;64.28;98946.44;4925143;29;20051;-70
2022/04/13 03:00:24;;;;;;;12.50;5.05;;;;;;;6.74;64.25;98943.72;4933121;29;20057;-71
2022/04/13 03:02:50;;;;;;;14.68;5.10;;;;;;;6.70;64.45;98952.69;4931647;29;20420;-71
2022/04/13 03:05:17;;;;;;;12.45;5.05;;;;;;;6.68;64.33;98950.25;4942516;29;20055;-70
2022/04/13 03:07:43;;;;;;;12.38;4.68;;;;;;;6.67;64.39;98960.28;4941255;29;20087;-71
2022/04/13 03:10:09;;;;;;;12.38;5.88;;;;;;;6.67;64.42;98956.78;4932163;29;20489;-69
2022/04/13 03:12:36;;;;;;;14.82;5.25;;;;;;;6.69;64.51;98965.47;4933016;29;20512;-71
2022/04/13 03:15:05;;;;;;;11.77;4.95;;;;;;;6.66;64.36;98968.72;4942736;29;20063;-71
2022/04/13 03:17:31;;;;;;;13.02;4.82;;;;;;;6.65;64.40;98967.09;4938271;28;20504;-71
2022/04/13 03:19:57;;;;;;;11.07;5.10;;;;;;;6.70;64.33;98966.25;4934707;29;20083;-71
2022/04/13 03:22:24;;;;;;;13.20;5.00;;;;;;;6.65;64.31;98961.66;4942987;28;20055;-71
2022/04/13 03:24:51;;;;;;;12.02;4.63;;;;;;;6.61;64.31;98980.38;4939507;29;20054;-71
2022/04/13 03:27:17;;;;;;;13.23;5.32;;;;;;;6.64;64.33;98976.34;4938659;29;20525;-70
2022/04/13 03:29:44;;;;;;;13.77;4.93;;;;;;;6.68;64.34;98971.97;4930208;29;20059;-71
2022/04/13 03:32:10;;;;;;;11.57;4.70;;;;;;;6.58;63.93;98947.50;4931062;29;20075;-71
2022/04/13 03:34:36;;;;;;;17.38;4.75;;;;;;;6.61;63.98;98961.38;4937568;29;20049;-70
2022/04/13 03:37:03;;;;;;;11.80;4.90;;;;;;;6.63;64.11;98977.38;4939420;29;20098;-71
2022/04/13 03:39:31;;;;;;;10.77;4.32;;;;;;;6.57;64.29;98968.44;4933810;29;20592;-69
2022/04/13 03:41:57;;;;;;;11.15;4.70;;;;;;;6.61;64.35;98982.28;4944572;29;20062;-71
2022/04/13 03:44:23;;;;;;;12.98;4.93;;;;;;;6.56;64.37;98979.56;4944776;29;20085;-72
2022/04/13 03:46:50;;;;;;;12.38;4.50;;;;;;;6.58;64.33;98974.66;4932899;28;20431;-69
2022/04/13 03:49:16;;;;;;;10.13;4.32;;;;;;;6.62;64.13;98976.59;4926599;29;20439;-71
2022/04/13 03:51:42;;;;;;;9.90;4.45;;;;;;;6.66;63.84;98983.09;4916184;29;20401;-71
2022/04/13 03:54:09;;;;;;;11.48;4.18;;;;;;;6.64;64.33;98982.56;4920953;29;20146;-72
2022/04/13 03:56:36;;;;;;;9.60;4.28;;;;;;;6.62;64.22;98987.44;4933403;29;20079;-71
2022/04/13 03:59:05;;;;;;;9.38;4.32;;;;;;;6.76;63.80;98986.94;4934229;29;20055;-70
2022/04/13 04:01:31;;;;;;;12.02;4.15;;;;;;;6.74;63.58;98989.13;4930800;29;20052;-70
2022/04/13 04:03:58;;;;;;;11.77;4.40;;;;;;;6.72;63.92;98989.38;4926764;29;20059;-70
2022/04/13 04:06:24;;;;;;;15.30;4.43;;;;;;;6.66;63.88;98983.09;4928323;29;20068;-69
2022/04/13 04:08:50;;;;;;;11.02;5.28;;;;;;;6.75;63.87;98985.31;4915891;29;20094;-70
2022/04/13 04:11:17;;;;;;;10.60;4.07;;;;;;;6.74;63.84;98984.47;4915389;29;20067;-70
2022/04/13 04:13:44;;;;;;;12.57;4.57;;;;;;;6.79;63.81;98991.81;4932371;29;20060;-68
2022/04/13 04:16:10;;;;;;;13.30;4.82;;;;;;;6.77;63.83;98994.00;4929470;29;20056;-68
2022/04/13 04:18:36;;;;;;;10.32;4.63;;;;;;;6.74;64.06;98984.47;4931710;29;20473;-69
2022/04/13 04:21:02;;;;;;;9.82;4.32;;;;;;;6.72;63.79;98997.53;4931955;29;20063;-70
2022/04/13 04:23:28;;;;;;;13.40;4.68;;;;;;;6.72;64.00;98994.81;4934012;29;20508;-70
2022/04/13 04:25:55;;;;;;;13.75;5.13;;;;;;;6.69;63.86;98997.22;4935029;29;20052;-69
2022/04/13 04:28:21;;;;;;;9.95;4.53;;;;;;;6.69;64.06;98999.94;4918246;29;20059;-69
2022/04/13 04:30:48;;;;;;;19.90;4.35;;;;;;;6.73;63.88;98999.16;4934724;29;20047;-69
2022/04/13 04:33:15;;;;;;;13.52;5.65;;;;;;;6.75;63.62;99001.63;4940023;29;20060;-69
2022/04/13 04:35:46;;;;;;;11.90;4.60;;;;;;;6.77;63.92;99005.66;4933432;29;20080;-69
2022/04/13 04:38:12;;;;;;;14.93;4.80;;;;;;;6.77;63.84;99011.09;4932925;29;20158;-69
2022/04/13 04:40:38;;;;;;;10.95;4.50;;;;;;;6.81;63.77;99008.69;4933253;29;20514;-69
2022/04/13 04:43:05;;;;;;;9.95;4.25;;;;;;;6.83;63.62;99011.94;4933412;29;20146;-68
2022/04/13 04:45:31;;;;;;;15.55;4.80;;;;;;;6.79;63.78;99008.13;4920210;29;20199;-68
2022/04/13 04:48:04;;;;;;;11.32;4.32;;;;;;;6.78;63.81;99003.78;4929342;29;20134;-71
2022/04/13 04:50:31;;;;;;;12.10;5.00;;;;;;;6.80;63.69;98993.47;4933776;29;20047;-70
2022/04/13 04:52:57;;;;;;;10.27;4.73;;;;;;;6.94;63.51;99005.44;4929700;29;20119;-70
2022/04/13 04:55:23;;;;;;;13.60;4.63;;;;;;;6.93;63.61;99011.13;4932166;29;20818;-69
2022/04/13 04:57:50;;;;;;;11.07;4.38;;;;;;;6.97;63.43;99014.97;4917009;29;20551;-69
2022/04/13 05:00:18;;;;;;;11.33;4.30;;;;;;;7.02;63.28;99011.41;4931950;29;20059;-69
2022/04/13 05:02:46;;;;;;;13.45;4.20;;;;;;;7.06;63.17;99018.75;4932135;29;20079;-69
2022/04/13 05:05:14;;;;;;;11.70;4.32;;;;;;;7.15;63.16;99019.03;4932000;29;20393;-70
2022/04/13 05:07:40;;;;;;;11.85;4.63;;;;;;;7.12;63.08;99019.59;4933435;29;20492;-70
2022/04/13 05:10:07;;;;;;;9.43;4.10;;;;;;;7.07;63.02;99014.94;4932966;29;20064;-70
2022/04/13 05:12:42;;;;;;;13.02;4.70;;;;;;;7.05;63.33;99011.69;4925806;29;20520;-69
2022/04/13 05:15:09;;;;;;;12.15;4.55;;;;;;;7.06;63.56;99012.53;4933079;29;20063;-69
2022/04/13 05:17:37;;;;;;;9.75;4.20;;;;;;;6.99;63.23;99001.91;4913958;29;20066;-70
2022/04/13 05:20:04;;;;;;;12.02;4.30;;;;;;;7.15;63.15;99021.75;4934940;29;20060;-73
2022/04/13 05:22:31;;;;;;;15.68;4.53;;;;;;;7.20;63.03;99032.66;4930990;29;20512;-70
2022/04/13 05:25:01;;;;;;;10.35;4.38;;;;;;;7.09;62.93;99004.63;4934867;29;20075;-70
2022/04/13 05:27:30;;;;;;;17.23;4.90;;;;;;;7.11;63.03;99025.31;4935326;29;20065;-70
2022/04/13 05:29:56;;;;;;;12.48;4.80;;;;;;;7.19;62.91;99032.91;4931981;29;20063;-69
2022/04/13 05:32:22;;;;;;;12.70;4.97;;;;;;;7.23;62.88;99047.59;4916279;29;20102;-70
2022/04/13 05:34:48;;;;;;;22.35;5.30;;;;;;;7.21;62.86;99045.16;4934067;29;20058;-75
2022/04/13 05:37:14;;;;;;;12.30;5.70;;;;;;;7.22;62.94;99040.53;4932992;29;20051;-69
2022/04/13 05:39:45;;;;;;;14.95;5.28;;;;;;;7.18;62.89;99048.44;4937296;29;20142;-69
2022/04/13 05:42:10;;;;;;;13.68;5.78;;;;;;;7.30;62.71;99052.75;4935106;29;20059;-69
2022/04/13 05:44:37;;;;;;;12.27;6.00;;;;;;;7.33;62.78;99057.66;4929248;29;20605;-70
2022/04/13 05:47:03;;;;;;;16.88;5.45;;;;;;;7.29;62.74;99062.84;4898549;29;20561;-70
2022/04/13 05:49:29;;;;;;;13.80;5.35;;;;;;;7.31;62.70;99062.56;4919557;29;20059;-70
2022/04/13 05:51:55;;;;;;;12.52;4.97;;;;;;;7.44;62.61;99062.00;4933717;29;20497;-69
2022/04/13 05:54:22;;;;;;;16.52;5.38;;;;;;;7.38;62.40;99060.41;4934150;29;20550;-69
2022/04/13 05:56:48;;;;;;;16.20;5.15;;;;;;;7.36;62.57;99065.28;4933491;29;20071;-70
2022/04/13 05:59:14;;;;;;;19.45;5.82;;;;;;;7.31;62.74;99060.66;4933767;29;20047;-69
2022/04/13 06:01:40;;;;;;;16.92;7.20;;;;;;;7.28;63.00;99063.94;4933317;29;20058;-70
2022/04/13 06:04:07;;;;;;;12.95;5.10;;;;;;;7.31;62.68;99057.94;4932026;29;20421;-68
2022/04/13 06:06:33;;;;;;;12.75;5.25;;;;;;;7.34;62.66;99056.59;4933269;29;20056;-68
2022/04/13 06:08:59;;;;;;;17.60;5.28;;;;;;;7.37;62.51;99061.47;4933506;29;20063;-69
2022/04/13 06:11:25;;;;;;;10.63;5.13;;;;;;;7.41;62.43;99072.63;4933266;29;20070;-66
2022/04/13 06:13:52;;;;;;;15.73;4.97;;;;;;;7.42;62.25;99068.84;4916734;29;20055;-68
2022/04/13 06:16:18;;;;;;;15.57;5.47;;;;;;;7.44;62.28;99075.63;4918501;29;20076;-67
2022/04/13 06:18:44;;;;;;;21.08;4.78;;;;;;;7.45;62.13;99071.00;4933402;29;20134;-69
2022/04/13 06:21:10;;;;;;;26.23;6.38;;;;;;;7.44;62.21;99080.25;4930563;29;20107;-69
2022/04/13 06:23:36;;;;;;;28.58;5.93;;;;;;;7.49;62.02;99077.53;4937867;29;20054;-72
2022/04/13 06:26:02;;;;;;;26.50;6.57;;;;;;;7.47;62.13;99080.50;4936773;29;20142;-72
2022/04/13 06:28:30;;;;;;;22.35;6.40;;;;;;;7.46;62.18;99076.16;4937902;29;20070;-72
2022/04/13 06:30:58;;;;;;;20.60;5.82;;;;;;;7.52;62.11;99085.97;4933141;29;20401;-69
2022/04/13 06:33:24;;;;;;;16.38;5.65;;;;;;;7.52;61.95;99088.69;4948646;29;20511;-69
2022/04/13 06:35:50;;;;;;;49.72;15.70;;;;;;;7.65;61.69;99091.97;4935080;29;20065;-70
2022/04/13 06:38:17;;;;;;;28.27;10.75;;;;;;;7.60;61.88;99100.94;4916089;29;20520;-69
2022/04/13 06:40:43;;;;;;;21.35;7.82;;;;;;;7.65;61.71;99090.03;4933345;29;20060;-69
2022/04/13 06:43:09;;;;;;;23.65;7.90;;;;;;;7.71;61.59;99100.91;4925250;29;20068;-70
2022/04/13 06:45:36;;;;;;;25.55;6.93;;;;;;;7.71;61.38;99101.75;4916233;29;20091;-70
2022/04/13 06:48:04;;;;;;;18.38;6.50;;;;;;;7.76;61.39;99106.38;4933584;29;20115;-71
2022/04/13 06:50:31;;;;;;;28.60;7.90;;;;;;;7.79;61.52;99109.34;4934406;29;20101;-70
2022/04/13 06:52:57;;;;;;;14.15;6.05;;;;;;;7.82;61.41;99107.19;4933692;29;20090;-69
2022/04/13 06:55:26;;;;;;;18.65;6.35;;;;;;;7.85;61.54;99115.59;4932580;29;20469;-70
2022/04/13 06:57:52;;;;;;;15.65;6.35;;;;;;;7.84;61.37;99119.41;4932664;29;20063;-70
2022/04/13 07:00:18;;;;;;;24.15;6.72;;;;;;;7.84;61.45;99118.63;4932514;29;20055;-69
2022/04/13 07:02:45;;;;;;;14.50;6.38;;;;;;;7.87;61.33;99112.63;4933226;29;20060;-70
2022/04/13 07:05:12;;;;;;;19.02;6.68;;;;;;;7.89;61.11;99116.72;4932736;29;20055;-70
2022/04/13 07:07:38;;;;;;;17.30;6.70;;;;;;;7.92;61.25;99096.25;4933434;29;20111;-69
2022/04/13 07:10:05;;;;;;;19.25;6.80;;;;;;;7.91;61.12;99113.69;4932570;29;20048;-70
2022/04/13 07:12:35;;;;;;;21.58;7.10;;;;;;;7.97;60.75;99106.34;4933016;29;20051;-69
2022/04/13 07:15:01;;;;;;;13.93;6.78;;;;;;;7.90;60.98;99114.78;4932659;29;20185;-69
2022/04/13 07:17:29;;;;;;;15.77;6.95;;;;;;;7.92;60.99;99126.22;4929098;29;20063;-69
2022/04/13 07:19:56;;;;;;;15.60;7.28;;;;;;;7.99;60.68;99132.22;4941440;29;20087;-69
2022/04/13 07:22:23;;;;;;;58.97;27.20;;;;;;;7.99;60.80;99131.38;4932843;29;20064;-69
2022/04/13 07:24:50;;;;;;;45.97;16.73;;;;;;;8.02;60.57;99137.09;4932330;29;20571;-70
2022/04/13 07:27:16;;;;;;;28.05;11.48;;;;;;;7.88;60.75;99134.13;4932498;29;20416;-69
2022/04/13 07:29:42;;;;;;;23.98;9.65;;;;;;;7.96;60.79;99130.03;4937477;29;20063;-69
2022/04/13 07:32:08;;;;;;;17.30;8.52;;;;;;;7.98;60.52;99137.91;4931609;29;20800;-69
2022/04/13 07:34:36;;;;;;;17.73;8.35;;;;;;;7.94;60.72;99143.09;4934463;29;20077;-70
2022/04/13 07:37:03;;;;;;;23.88;8.10;;;;;;;7.95;60.62;99131.94;4932619;29;20071;-70
2022/04/13 07:39:30;;;;;;;16.30;7.72;;;;;;;7.80;60.70;99124.59;4931548;29;20064;-68
2022/04/13 07:41:56;;;;;;;20.55;8.50;;;;;;;7.88;60.73;99138.75;4929297;29;20135;-70
2022/04/13 07:44:22;;;;;;;17.77;7.57;;;;;;;7.91;60.53;99136.31;4932653;29;20060;-69
2022/04/13 07:46:49;;;;;;;17.50;7.95;;;;;;;7.90;60.58;99145.56;4932337;29;20051;-70
2022/04/13 07:49:16;;;;;;;20.00;7.50;;;;;;;7.88;60.69;99147.75;4927847;29;20079;-70
2022/04/13 07:51:42;;;;;;;24.38;7.30;;;;;;;7.90;60.83;99148.28;4931714;29;20535;-69
2022/04/13 07:54:08;;;;;;;16.88;7.28;;;;;;;7.99;60.66;99150.44;4940765;29;20055;-69
2022/04/13 07:56:35;;;;;;;19.70;7.35;;;;;;;8.01;60.48;99159.16;4933203;29;20066;-68
2022/04/13 07:59:02;;;;;;;23.95;7.50;;;;;;;7.98;60.49;99151.53;4934407;29;20062;-68
2022/04/13 08:01:28;;;;;;;18.17;7.95;;;;;;;7.94;60.45;99154.81;4935390;29;20111;-69
2022/04/13 08:03:54;;;;;;;20.65;7.22;;;;;;;7.96;60.34;99157.25;4923777;29;20067;-68
2022/04/13 08:06:21;;;;;;;29.63;7.80;;;;;;;7.95;60.59;99158.31;4940123;29;20048;-68
2022/04/13 08:08:47;;;;;;;23.73;8.43;;;;;;;7.98;60.54;99163.25;4941288;29;20043;-68
2022/04/13 08:11:13;;;;;;;22.17;8.23;;;;;;;8.01;60.39;99168.13;4933794;29;20047;-68
2022/04/13 08:13:40;;;;;;;17.05;7.88;;;;;;;8.00;60.27;99163.78;4935624;29;20110;-67
2022/04/13 08:16:07;;;;;;;19.98;8.38;;;;;;;7.96;60.35;99157.25;4937606;29;20048;-70
2022/04/13 08:18:33;;;;;;;20.58;8.02;;;;;;;8.07;60.16;99164.31;4934549;29;20060;-68
2022/04/13 08:20:59;;;;;;;21.30;8.15;;;;;;;8.06;60.25;99159.97;4934899;29;20088;-69
2022/04/13 08:23:25;;;;;;;24.10;8.57;;;;;;;8.13;60.02;99169.78;4934838;29;20408;-71
2022/04/13 08:25:51;;;;;;;19.75;7.57;;;;;;;8.15;59.87;99160.22;4933780;29;20067;-70
2022/04/13 08:28:17;;;;;;;17.65;7.32;;;;;;;8.10;60.06;99157.50;4931255;29;20060;-72
2022/04/13 08:30:44;;;;;;;21.88;7.85;;;;;;;8.12;60.06;99168.13;4917059;29;20064;-71
2022/04/13 08:33:10;;;;;;;17.03;7.67;;;;;;;8.19;59.95;99155.84;4899396;29;20087;-70
2022/04/13 08:35:36;;;;;;;19.77;8.10;;;;;;;8.29;59.65;99168.66;4905687;28;20738;-70
2022/04/13 08:38:02;;;;;;;22.58;8.65;;;;;;;8.31;59.63;99161.03;4916596;29;20075;-72
2022/04/13 08:40:33;;;;;;;23.33;8.18;;;;;;;8.27;59.88;99159.91;4924721;29;20495;-71
2022/04/13 08:43:07;;;;;;;15.00;7.60;;;;;;;8.22;59.99;99157.22;4935226;29;20059;-70
2022/04/13 08:45:39;;;;;;;27.38;8.43;;;;;;;8.46;59.40;99167.53;4936282;28;20512;-70
2022/04/13 08:48:11;;;;;;;20.15;7.85;;;;;;;8.47;59.26;99169.16;4911809;29;20096;-71
2022/04/13 08:50:38;;;;;;;18.88;8.27;;;;;;;8.44;59.45;99159.63;4941404;29;20138;-77
2022/04/13 08:53:09;;;;;;;27.70;7.97;;;;;;;8.43;59.34;99157.16;4917048;29;20056;-73
2022/04/13 08:55:39;;;;;;;23.70;8.25;;;;;;;8.47;59.51;99169.97;4934024;29;20051;-74
2022/04/13 08:58:13;;;;;;;23.45;9.32;;;;;;;8.55;59.39;99168.63;4917997;29;20074;-73
2022/04/13 09:00:48;;;;;;;20.73;8.88;;;;;;;8.59;59.30;99171.59;4939464;29;20142;-73
2022/04/13 09:03:24;;;;;;;22.83;9.15;;;;;;;8.67;59.13;99162.06;4933078;29;20047;-73
2022/04/13 09:05:52;;;;;;;28.83;13.02;;;;;;;8.67;58.99;99165.59;4932147;29;20051;-77
2022/04/13 09:08:21;;;;;;;29.00;10.65;;;;;;;8.68;59.03;99174.59;4933464;29;20071;-76
2022/04/13 09:10:49;;;;;;;25.08;10.05;;;;;;;8.61;59.24;99175.69;4934326;29;20055;-78
2022/04/13 09:13:19;;;;;;;27.48;9.13;;;;;;;8.65;59.24;99181.38;4935854;29;20064;-69
2022/04/13 09:15:46;;;;;;;25.20;9.27;;;;;;;8.64;58.94;99171.59;4940664;28;20055;-69
2022/04/13 09:18:12;;;;;;;17.00;8.50;;;;;;;8.79;58.68;99174.25;4935384;29;20055;-71
2022/04/13 09:20:40;;;;;;;25.13;9.88;;;;;;;8.72;58.99;99181.94;4934220;29;20511;-72
2022/04/13 09:23:06;;;;;;;25.35;9.60;;;;;;;8.60;58.97;99160.44;4927642;29;20404;-74
2022/04/13 09:25:34;;;;;;;21.83;9.20;;;;;;;8.69;59.14;99174.31;4934880;29;20056;-73
2022/04/13 09:28:02;;;;;;;24.85;8.75;;;;;;;8.70;59.17;99186.03;4919820;29;20059;-72
2022/04/13 09:30:32;;;;;;;21.95;8.52;;;;;;;8.77;59.04;99181.09;4916314;29;20056;-72
2022/04/13 09:32:59;;;;;;;24.67;9.05;;;;;;;8.89;58.98;99178.06;4936316;29;20139;-72
2022/04/13 09:35:25;;;;;;;22.38;8.68;;;;;;;8.91;58.72;99168.50;4936935;29;20071;-70
2022/04/13 09:37:52;;;;;;;23.70;9.65;;;;;;;8.98;58.81;99175.56;4933988;29;20067;-70
2022/04/13 09:40:29;;;;;;;25.38;9.18;;;;;;;8.91;58.92;99171.25;4943691;29;20063;-71
2022/04/13 09:43:03;;;;;;;35.55;9.25;;;;;;;8.84;58.93;99176.16;4923316;29;20102;-71
2022/04/13 09:45:33;;;;;;;28.48;9.68;;;;;;;8.81;59.33;99184.91;4928775;29;20505;-71
2022/04/13 09:48:03;;;;;;;25.73;9.30;;;;;;;8.82;59.21;99181.06;4932562;29;20059;-71
2022/04/13 09:50:29;;;;;;;32.63;9.82;;;;;;;8.75;59.30;99173.19;4933707;29;20063;-70
2022/04/13 09:52:57;;;;;;;31.57;9.17;;;;;;;8.88;58.95;99177.22;4928691;29;20394;-72
2022/04/13 09:55:25;;;;;;;24.60;9.35;;;;;;;8.88;58.92;99188.13;4897210;29;20048;-71
2022/04/13 09:58:03;;;;;;;23.92;10.05;;;;;;;8.75;59.20;99166.94;4933615;29;20062;-71
2022/04/13 10:00:29;;;;;;;24.88;9.95;;;;;;;8.77;59.22;99183.81;4932160;29;20228;-70
2022/04/13 10:03:07;;;;;;;26.83;10.68;;;;;;;8.74;59.51;99187.91;4916973;29;20047;-71
2022/04/13 10:05:34;;;;;;;31.25;10.10;;;;;;;8.76;59.36;99183.00;4913967;29;20048;-71
2022/04/13 10:08:02;;;;;;;27.07;9.60;;;;;;;8.68;59.51;99174.59;4926393;29;20423;-67
2022/04/13 10:10:28;;;;;;;25.20;9.90;;;;;;;8.64;59.47;99179.75;4933694;29;20517;-68
2022/04/13 10:12:54;;;;;;;26.63;10.48;;;;;;;8.65;59.47;99193.13;4930341;29;20059;-68
2022/04/13 10:15:21;;;;;;;29.05;10.40;;;;;;;8.64;59.34;99204.28;4917671;29;20521;-68
2022/04/13 10:17:47;;;;;;;31.17;9.82;;;;;;;8.69;59.49;99206.19;4933927;29;20083;-68
2022/04/13 10:20:14;;;;;;;26.20;9.75;;;;;;;8.60;59.38;99214.13;4939502;29;20110;-68
2022/04/13 10:22:59;;;;;;;33.97;10.45;;;;;;;8.57;59.60;99215.47;4934587;29;20056;-68
2022/04/13 10:25:28;;;;;;;26.48;9.98;;;;;;;8.58;59.60;99219.03;4944325;29;20059;-67
2022/04/13 10:27:55;;;;;;;26.92;9.32;;;;;;;8.54;59.66;99201.59;4946861;28;20110;-68
2022/04/13 10:30:26;;;;;;;26.17;9.85;;;;;;;8.62;59.55;99211.94;4938380;29;20528;-67
2022/04/13 10:32:58;;;;;;;29.17;11.00;;;;;;;8.59;59.26;99218.75;4928914;29;20064;-72
2022/04/13 10:35:24;;;;;;;24.48;10.55;;;;;;;8.53;59.65;99214.41;4930509;29;20056;-72
2022/04/13 10:37:51;;;;;;;24.48;9.88;;;;;;;8.58;59.57;99214.38;4933379;29;20492;-73
2022/04/13 10:40:19;;;;;;;24.25;10.57;;;;;;;8.62;59.53;99210.03;4945504;29;20115;-73
2022/04/13 10:42:50;;;;;;;24.00;10.02;;;;;;;8.56;59.58;99202.94;4923317;29;20526;-72
2022/04/13 10:45:17;;;;;;;28.38;10.50;;;;;;;8.47;59.95;99221.72;4932364;29;20052;-73
2022/04/13 10:47:50;;;;;;;28.65;9.85;;;;;;;8.46;59.77;99211.94;4932784;29;20522;-72
2022/04/13 10:50:24;;;;;;;28.23;9.90;;;;;;;8.38;60.03;99210.56;4935423;29;20063;-73
2022/04/13 10:52:57;;;;;;;25.63;9.50;;;;;;;8.27;60.08;99206.22;4932076;29;20539;-73
2022/04/13 10:55:24;;;;;;;29.05;9.80;;;;;;;8.38;60.12;99218.75;4945510;29;20082;-76
2022/04/13 10:57:57;;;;;;;44.00;10.35;;;;;;;8.36;60.15;99212.75;4929475;29;20055;-77
2022/04/13 11:00:25;;;;;;;29.05;9.68;;;;;;;8.36;60.06;99211.97;4919905;29;20066;-77
2022/04/13 11:02:54;;;;;;;32.40;9.98;;;;;;;8.38;60.06;99226.91;4930493;29;20317;-77
2022/04/13 11:05:22;;;;;;;27.67;8.70;;;;;;;8.33;59.95;99224.22;4935959;29;20482;-77
2022/04/13 11:07:53;;;;;;;25.88;9.48;;;;;;;8.37;59.96;99219.03;4904180;29;20085;-77
2022/04/13 11:10:21;;;;;;;21.55;8.70;;;;;;;8.30;60.27;99223.94;4931247;29;20111;-77
2022/04/13 11:12:48;;;;;;;24.45;8.90;;;;;;;8.25;60.08;99226.66;4918073;29;20055;-76
2022/04/13 11:15:16;;;;;;;25.50;8.90;;;;;;;8.38;60.12;99226.91;4922912;29;20051;-77
2022/04/13 11:17:43;;;;;;;27.05;10.23;;;;;;;8.32;60.03;99225.31;4930982;29;20055;-75
2022/04/13 11:20:19;;;;;;;38.78;9.50;;;;;;;8.27;60.04;99224.50;4919200;29;20047;-76
2022/04/13 11:22:46;;;;;;;20.02;8.27;;;;;;;8.18;60.31;99226.94;4928596;29;20063;-76
2022/04/13 11:25:42;;;;;;;27.57;9.10;;;;;;;8.37;60.21;99238.09;4938215;29;20063;-77
2022/04/13 11:28:09;;;;;;;26.65;9.25;;;;;;;8.33;59.86;99226.09;4930395;29;20214;-79
2022/04/13 11:31:00;;;;;;;25.73;8.83;;;;;;;8.41;60.15;99241.09;4931294;29;20044;-77
2022/04/13 11:33:40;;;;;;;24.83;8.27;;;;;;;8.49;59.82;99244.06;4915304;29;20342;-77
2022/04/13 11:36:06;;;;;;;28.45;9.77;;;;;;;8.47;59.77;99246.25;4932810;28;20265;-74